Notice: Undefined index: language in /home/u294900127/public_html/vam/index.php on line 31
Aeroboteco

 INFORMAÇÕES METEOROLÓGICAS
METAR FOR LYBE
ADDS - METARS form results

(1542 UTC 26 May 2018)
Data provider http://aviationweather.gov/adds/metars/
 
METAR text: LYBE 261530Z 02007KT 340V050 CAVOK 28/16 Q1019 NOSIG
Conditions at: LYBE (BELGRADE/SURCIN , CS) observed 1530 UTC 26 May 2018
Temperature: 28.0°C (82°F)
Dewpoint: 16.0°C (61°F) [RH = 48%]
Pressure (altimeter): 30.09 inches Hg (1019.0 mb)
Winds: from the NNE (20 degrees) at 8 MPH (7 knots; 3.6 m/s)
Visibility: 6 or more miles (10+ km)
Ceiling: ceiling and visibility are OK
Clouds: unknown
Weather: no significant weather observed at this time

METAR text: LYBE 261500Z 36006KT 330V050 CAVOK 28/15 Q1019 NOSIG
Conditions at: LYBE (BELGRADE/SURCIN , CS) observed 1500 UTC 26 May 2018
Temperature: 28.0°C (82°F)
Dewpoint: 15.0°C (59°F) [RH = 45%]
Pressure (altimeter): 30.09 inches Hg (1019.0 mb)
Winds: from the N (360 degrees) at 7 MPH (6 knots; 3.1 m/s)
Visibility: 6 or more miles (10+ km)
Ceiling: ceiling and visibility are OK
Clouds: unknown
Weather: no significant weather observed at this time

Forecast for: LYBE (BELGRADE/SURCIN , CS)
Text: TAF LYBE 261100Z 2612/2712 03005KT 9999 SCT040 TX27/2712Z TN15/2703Z
Forecast period: 1200 UTC 26 May 2018 to 1200 UTC 27 May 2018
Forecast type: FROM: standard forecast or significant change
Winds: from the NNE (30 degrees) at 6 MPH (5 knots; 2.6 m/s)
Visibility: 6 or more miles (10+ km)
Clouds: scattered clouds at 4000 feet AGL
Weather: no significant weather forecast for this period
Text: TEMPO 2612/2618 VRB015KT 3000 TSRA SCT033CB BKN040
Forecast period: 1200 to 1800 UTC 26 May 2018
Forecast type: TEMPORARY: The following changes expected for less than half the time period
Winds: variable direction winds at 17 MPH (15 knots; 7.8 m/s)
Visibility: 1.86 miles (2.99 km)
Ceiling: 4000 feet AGL
Clouds: scattered clouds at 3300 feet AGL
broken clouds at 4000 feet AGL
Weather: TSRA  (rain associated with thunderstorm(s))

 MAPA DO AEROPORTO

 INFORMAÇÕES DA PISTA
Pista 12 Tamanho da pista 11155 ft Largura da pista 148 ft
Elevação da pista 318 ft Ranhura da pista 0 ft Proa da pista 122
Pista 30 Tamanho da pista 11155 ft Largura da pista 148 ft
Elevação da pista 335 ft Ranhura da pista 1312 ft Proa da pista 302

 FREQUÊNCIAS DO AEROPORTO
Tipo APP Nome APP Frequência 119.1 MHZ
Tipo ATIS Nome INFO Frequência 122.925 MHZ
Tipo TWR Nome TWR Frequência 118.1 MHZ

 AUXÍLIOS DE NAVEGAÇÃO PRÓXIMOS AO AEROPORTO
Tipo VOR-DME Nome Beograd Frequência 112300 KHZ
Tipo NDB Nome Beograd Frequência 316 KHZ
Tipo NDB Nome Beograd Frequência 380 KHZ
Tipo NDB Nome Beograd Frequência 355 KHZ



Powered by Virtual Airlines Manager [v2.6.2]